Time;durP1;ratioP1;P1;durP2;ratioP2;P2;SDS_P1;SDS_P2;PMS_P1;PMS_P2;Temp;Humidity;BMP_temperature;BMP_pressure;BME280_temperature;BME280_humidity;BME280_pressure;Samples;Min_cycle;Max_cycle;Signal;HPM_P1;HPM_P2
2022/12/04 00:02:09;;;;;;;60.97;34.72;;;;;;;-0.55;100.00;101620.25;5106566;28;20031;-66
2022/12/04 00:04:35;;;;;;;58.50;34.40;;;;;;;-0.54;100.00;101607.34;5103311;28;20420;-66
2022/12/04 00:07:00;;;;;;;62.08;34.70;;;;;;;-0.52;100.00;101610.03;5105465;28;20042;-66
2022/12/04 00:09:26;;;;;;;60.28;34.28;;;;;;;-0.53;100.00;101613.44;5105627;28;20032;-68
2022/12/04 00:11:51;;;;;;;59.85;33.95;;;;;;;-0.54;100.00;101601.22;5104372;28;20028;-67
2022/12/04 00:14:17;;;;;;;59.45;34.55;;;;;;;-0.54;100.00;101603.84;5106677;28;20032;-67
2022/12/04 00:16:43;;;;;;;58.72;34.58;;;;;;;-0.55;100.00;101602.06;5103569;28;20029;-66
2022/12/04 00:19:08;;;;;;;60.50;34.58;;;;;;;-0.55;100.00;101600.34;5106316;28;20024;-67
2022/12/04 00:21:33;;;;;;;58.17;35.00;;;;;;;-0.55;100.00;101594.25;5104105;28;20032;-67
2022/12/04 00:23:59;;;;;;;61.55;35.75;;;;;;;-0.56;100.00;101595.06;5105121;28;20081;-67
2022/12/04 00:26:27;;;;;;;61.80;34.80;;;;;;;-0.54;100.00;101601.22;5105542;28;20161;-68
2022/12/04 00:28:53;;;;;;;57.83;33.55;;;;;;;-0.57;100.00;101596.78;5103698;28;20101;-70
2022/12/04 00:31:22;;;;;;;57.55;34.40;;;;;;;-0.59;100.00;101593.16;5105983;28;20050;-67
2022/12/04 00:33:47;;;;;;;61.40;34.55;;;;;;;-0.55;100.00;101594.25;5102731;28;20048;-68
2022/12/04 00:36:15;;;;;;;59.85;35.47;;;;;;;-0.56;100.00;101588.16;5105269;28;20047;-67
2022/12/04 00:38:41;;;;;;;58.67;34.83;;;;;;;-0.56;100.00;101595.06;5103353;28;20024;-66
2022/12/04 00:41:12;;;;;;;61.65;34.42;;;;;;;-0.56;100.00;101595.06;5105763;28;20389;-68
2022/12/04 00:43:37;;;;;;;61.33;34.90;;;;;;;-0.59;100.00;101594.88;5103718;28;20080;-66
2022/12/04 00:46:03;;;;;;;60.35;34.92;;;;;;;-0.57;100.00;101595.84;5105127;28;20024;-66
2022/12/04 00:48:28;;;;;;;59.45;34.03;;;;;;;-0.56;100.00;101593.34;5104518;27;20480;-66
2022/12/04 00:50:54;;;;;;;56.75;33.08;;;;;;;-0.57;100.00;101585.47;5103639;28;20488;-66
2022/12/04 00:53:20;;;;;;;58.08;33.50;;;;;;;-0.57;100.00;101585.47;5104738;28;20363;-67
2022/12/04 00:55:45;;;;;;;60.83;35.15;;;;;;;-0.59;100.00;101592.28;5102625;28;20025;-66
2022/12/04 00:58:11;;;;;;;61.45;36.10;;;;;;;-0.55;100.00;101594.25;5105825;28;20445;-66
2022/12/04 01:00:40;;;;;;;57.35;33.80;;;;;;;-0.58;100.00;101588.88;5103298;28;20115;-66
2022/12/04 01:03:07;;;;;;;59.28;34.95;;;;;;;-0.60;100.00;101585.28;5104942;28;20102;-66
2022/12/04 01:05:41;;;;;;;57.05;33.72;;;;;;;-0.58;100.00;101592.38;5103630;28;20030;-66
2022/12/04 01:08:07;;;;;;;60.22;34.00;;;;;;;-0.58;100.00;101600.16;5105125;28;20055;-66
2022/12/04 01:10:32;;;;;;;60.65;35.67;;;;;;;-0.58;100.00;101599.28;5103752;28;20070;-66
2022/12/04 01:12:58;;;;;;;60.75;35.33;;;;;;;-0.57;100.00;101598.44;5102561;28;20038;-66
2022/12/04 01:15:23;;;;;;;60.75;34.63;;;;;;;-0.60;100.00;101600.88;5104949;28;20499;-66
2022/12/04 01:17:48;;;;;;;57.13;34.10;;;;;;;-0.59;100.00;101602.66;5102638;28;20028;-66
2022/12/04 01:20:15;;;;;;;59.22;35.90;;;;;;;-0.55;100.00;101605.53;5105563;28;20034;-65
2022/12/04 01:22:41;;;;;;;58.55;34.17;;;;;;;-0.59;100.00;101603.56;5102275;28;20251;-67
2022/12/04 01:25:07;;;;;;;59.90;35.00;;;;;;;-0.59;100.00;101602.66;5104641;28;20031;-66
2022/12/04 01:27:32;;;;;;;59.10;33.88;;;;;;;-0.59;100.00;101608.75;5102986;28;20032;-66
2022/12/04 01:29:57;;;;;;;57.25;34.60;;;;;;;-0.58;100.00;101601.88;5103516;28;20039;-66
2022/12/04 01:32:23;;;;;;;58.83;34.70;;;;;;;-0.57;100.00;101609.75;5104378;28;20538;-66
2022/12/04 01:34:48;;;;;;;58.20;34.42;;;;;;;-0.60;100.00;101611.25;5102073;28;20036;-67
2022/12/04 01:37:13;;;;;;;58.17;34.05;;;;;;;-0.54;100.00;101611.63;5105523;28;20518;-67
2022/12/04 01:39:39;;;;;;;59.38;34.72;;;;;;;-0.58;100.00;101607.06;5102072;28;20526;-67
2022/12/04 01:42:04;;;;;;;55.97;33.45;;;;;;;-0.57;100.00;101601.97;5104029;28;20036;-78
2022/12/04 01:44:31;;;;;;;55.85;33.28;;;;;;;-0.58;100.00;101602.75;5103248;28;20032;-78
2022/12/04 01:46:58;;;;;;;58.92;34.20;;;;;;;-0.56;100.00;101605.44;5102934;28;20019;-75
2022/12/04 01:49:23;;;;;;;58.88;34.50;;;;;;;-0.58;100.00;101594.09;5104128;28;20031;-78
2022/12/04 01:51:54;;;;;;;58.17;35.15;;;;;;;-0.56;100.00;101597.66;5101902;28;20031;-78
2022/12/04 01:54:27;;;;;;;57.75;34.63;;;;;;;-0.59;100.00;101593.16;5104573;28;20527;-78
2022/12/04 01:57:00;;;;;;;57.10;34.72;;;;;;;-0.59;100.00;101592.28;5102044;28;20027;-78
2022/12/04 01:59:32;;;;;;;57.53;35.00;;;;;;;-0.55;100.00;101587.34;5103648;28;20023;-77
2022/12/04 02:02:03;;;;;;;58.50;35.20;;;;;;;-0.60;100.00;101587.88;5102910;28;20095;-77
2022/12/04 02:04:30;;;;;;;57.35;33.90;;;;;;;-0.60;100.00;101590.47;5103470;28;20050;-78
2022/12/04 02:06:55;;;;;;;56.97;34.50;;;;;;;-0.57;100.00;101585.47;5102350;28;20041;-78
2022/12/04 02:09:22;;;;;;;60.25;35.72;;;;;;;-0.57;100.00;101588.06;5104377;28;20394;-78
2022/12/04 02:12:07;;;;;;;57.03;33.78;;;;;;;-0.58;100.00;101594.09;5101476;28;20025;-76
2022/12/04 02:14:50;;;;;;;56.45;33.67;;;;;;;-0.57;100.00;101585.47;5102949;28;20573;-77
2022/12/04 02:17:24;;;;;;;57.50;34.95;;;;;;;-0.56;100.00;101589.88;5096096;28;20028;-76
2022/12/04 02:20:11;;;;;;;56.70;34.90;;;;;;;-0.54;100.00;101590.84;5098173;28;20035;-76
2022/12/04 02:22:58;;;;;;;59.00;35.28;;;;;;;-0.55;100.00;101589.06;5101909;28;20020;-77
2022/12/04 02:26:01;;;;;;;56.72;34.13;;;;;;;-0.54;100.00;101583.97;5099399;28;20352;-78
2022/12/04 02:28:52;;;;;;;57.45;34.25;;;;;;;-0.57;100.00;101582.88;5100100;28;20109;-78
2022/12/04 02:31:23;;;;;;;60.67;35.47;;;;;;;-0.58;100.00;101588.88;5098136;28;20406;-76
2022/12/04 02:33:57;;;;;;;56.67;34.55;;;;;;;-0.58;100.00;101583.69;5104465;28;20023;-76
2022/12/04 02:36:28;;;;;;;58.22;34.92;;;;;;;-0.63;100.00;101585.09;5100365;28;20037;-79
2022/12/04 02:39:10;;;;;;;58.17;35.35;;;;;;;-0.59;100.00;101584.50;5103553;28;20069;-74
2022/12/04 02:41:40;;;;;;;58.78;35.80;;;;;;;-0.61;100.00;101583.47;5103319;28;20058;-78
2022/12/04 02:44:21;;;;;;;58.17;35.63;;;;;;;-0.58;100.00;101581.09;5100666;28;20047;-76
2022/12/04 02:46:50;;;;;;;56.63;34.97;;;;;;;-0.61;100.00;101578.28;5097419;28;20417;-76
2022/12/04 02:49:25;;;;;;;57.78;35.47;;;;;;;-0.61;100.00;101583.47;5097061;28;20478;-77
2022/12/04 02:51:54;;;;;;;56.08;33.83;;;;;;;-0.59;100.00;101587.09;5098052;28;20463;-79
2022/12/04 02:54:41;;;;;;;56.92;35.65;;;;;;;-0.59;100.00;101576.69;5104260;28;20024;-78
2022/12/04 02:57:13;;;;;;;59.42;35.90;;;;;;;-0.62;100.00;101573.91;5107477;28;20024;-78
2022/12/04 02:59:41;;;;;;;56.83;34.63;;;;;;;-0.62;100.00;101566.13;5105649;28;20467;-78
2022/12/04 03:02:16;;;;;;;56.63;35.28;;;;;;;-0.61;100.00;101568.81;5107222;28;20071;-79
2022/12/04 03:04:43;;;;;;;57.72;34.78;;;;;;;-0.61;100.00;101567.91;5105246;28;20059;-78
2022/12/04 03:07:13;;;;;;;59.25;36.67;;;;;;;-0.62;100.00;101563.53;5107957;28;20096;-79
2022/12/04 03:09:44;;;;;;;59.85;36.00;;;;;;;-0.60;100.00;101564.50;5105585;28;20471;-80
2022/12/04 03:12:21;;;;;;;58.65;35.95;;;;;;;-0.60;100.00;101569.69;5107610;28;20028;-73
2022/12/04 03:14:56;;;;;;;56.97;35.22;;;;;;;-0.62;100.00;101566.13;5100785;28;20028;-78
2022/12/04 03:17:32;;;;;;;57.55;35.67;;;;;;;-0.61;100.00;101568.81;5101756;28;20122;-79
2022/12/04 03:20:03;;;;;;;58.97;35.90;;;;;;;-0.63;100.00;101573.00;5103867;28;20031;-77
2022/12/04 03:22:33;;;;;;;62.08;36.80;;;;;;;-0.63;100.00;101574.72;5106301;28;20053;-79
2022/12/04 03:24:59;;;;;;;59.97;36.22;;;;;;;-0.62;100.00;101569.59;5106006;28;20386;-79
2022/12/04 03:27:47;;;;;;;59.33;37.30;;;;;;;-0.59;100.00;101576.69;5107176;28;20531;-78
2022/12/04 03:30:17;;;;;;;60.95;36.58;;;;;;;-0.63;100.00;101570.41;5107639;28;20062;-79
2022/12/04 03:32:43;;;;;;;57.88;35.90;;;;;;;-0.60;100.00;101570.59;5104273;28;20020;-79
2022/12/04 03:35:22;;;;;;;63.08;37.67;;;;;;;-0.63;100.00;101564.31;5106949;28;20110;-78
2022/12/04 03:38:11;;;;;;;57.40;35.63;;;;;;;-0.63;100.00;101560.00;5100563;28;20024;-79
2022/12/04 03:40:48;;;;;;;58.55;36.83;;;;;;;-0.62;100.00;101566.13;5105685;28;20370;-79
2022/12/04 03:43:33;;;;;;;58.42;37.05;;;;;;;-0.53;100.00;101557.16;5103959;28;20028;-79
2022/12/04 03:46:12;;;;;;;59.90;36.92;;;;;;;-0.60;100.00;101560.19;5103246;28;20024;-77
2022/12/04 03:48:46;;;;;;;60.05;36.80;;;;;;;-0.63;100.00;101554.81;5104764;28;20019;-78
2022/12/04 03:51:39;;;;;;;61.80;38.03;;;;;;;-0.64;100.00;101547.84;5107264;28;20111;-79
2022/12/04 03:54:16;;;;;;;60.08;37.47;;;;;;;-0.61;100.00;101554.91;5104862;28;20029;-67
2022/12/04 03:56:47;;;;;;;60.38;37.50;;;;;;;-0.62;100.00;101555.72;5104044;28;20024;-66
2022/12/04 03:59:25;;;;;;;59.90;37.08;;;;;;;-0.59;100.00;101550.72;5107169;28;20020;-66
2022/12/04 04:01:55;;;;;;;59.92;35.78;;;;;;;-0.59;100.00;101554.19;5100660;28;20055;-68
2022/12/04 04:04:28;;;;;;;57.95;36.92;;;;;;;-0.61;100.00;101552.31;5106758;27;20389;-66
2022/12/04 04:06:58;;;;;;;63.03;37.70;;;;;;;-0.60;100.00;101551.50;5103895;28;20102;-66
2022/12/04 04:09:25;;;;;;;60.70;36.67;;;;;;;-0.63;100.00;101546.13;5106488;28;20055;-66
2022/12/04 04:12:04;;;;;;;61.95;37.13;;;;;;;-0.60;100.00;101559.31;5102349;28;20024;-67
2022/12/04 04:25:59;;;;;;;60.92;37.60;;;;;;;-0.62;100.00;101555.72;5101825;28;20122;-67
2022/12/04 04:28:31;;;;;;;59.65;36.88;;;;;;;-0.59;100.00;101550.72;5105705;28;20104;-67
2022/12/04 04:31:05;;;;;;;61.08;37.78;;;;;;;-0.61;100.00;101547.13;5104108;28;20544;-65
2022/12/04 04:33:33;;;;;;;62.00;38.22;;;;;;;-0.64;100.00;101552.13;5104964;28;20024;-68
2022/12/04 04:36:14;;;;;;;61.13;38.00;;;;;;;-0.58;100.00;101552.53;5104377;28;20101;-71
2022/12/04 04:38:47;;;;;;;60.75;36.95;;;;;;;-0.61;100.00;101541.91;5102483;28;20028;-66
2022/12/04 04:41:19;;;;;;;57.42;36.53;;;;;;;-0.64;100.00;101550.44;5106073;28;20470;-66
2022/12/04 04:43:56;;;;;;;59.35;36.70;;;;;;;-0.61;100.00;101544.53;5098642;28;20040;-67
2022/12/04 04:46:32;;;;;;;59.75;36.65;;;;;;;-0.60;100.00;101551.50;5098708;28;20429;-67
2022/12/04 04:49:01;;;;;;;61.03;38.05;;;;;;;-0.60;100.00;101546.31;5105247;28;20034;-79
2022/12/04 04:51:27;;;;;;;62.22;37.90;;;;;;;-0.58;100.00;101549.94;5102847;28;20032;-79
2022/12/04 04:53:56;;;;;;;60.47;37.03;;;;;;;-0.59;100.00;101548.13;5105626;28;20043;-79
2022/12/04 04:56:23;;;;;;;59.72;35.83;;;;;;;-0.62;100.00;101555.72;5102792;28;20032;-78
2022/12/04 04:58:48;;;;;;;62.70;38.00;;;;;;;-0.59;100.00;101554.19;5106288;28;20034;-79
2022/12/04 05:01:17;;;;;;;61.38;37.78;;;;;;;-0.59;100.00;101555.91;5102650;28;20043;-78
2022/12/04 05:03:42;;;;;;;60.40;37.15;;;;;;;-0.59;100.00;101555.91;5105537;28;20111;-79
2022/12/04 05:06:08;;;;;;;61.35;35.55;;;;;;;-0.58;100.00;101556.00;5103422;28;20538;-79
2022/12/04 05:08:34;;;;;;;60.65;37.17;;;;;;;-0.60;100.00;101564.50;5104562;28;20030;-79
2022/12/04 05:11:00;;;;;;;60.83;37.40;;;;;;;-0.60;100.00;101556.72;5104393;28;20034;-77
2022/12/04 05:13:27;;;;;;;61.20;37.55;;;;;;;-0.58;100.00;101562.91;5103444;28;20455;-78
2022/12/04 05:15:56;;;;;;;61.20;37.40;;;;;;;-0.57;100.00;101554.28;5105211;28;20378;-79
2022/12/04 05:18:22;;;;;;;60.35;37.72;;;;;;;-0.55;100.00;101557.91;5101829;28;20044;-79
2022/12/04 05:20:47;;;;;;;60.60;37.70;;;;;;;-0.60;100.00;101556.72;5105667;28;20031;-79
2022/12/04 05:23:12;;;;;;;59.20;36.42;;;;;;;-0.59;100.00;101558.50;5102735;28;20134;-79
2022/12/04 05:25:38;;;;;;;64.18;37.72;;;;;;;-0.56;100.00;101556.09;5104675;28;20028;-78
2022/12/04 05:28:03;;;;;;;59.30;37.35;;;;;;;-0.54;100.00;101562.28;5103477;27;20040;-79
2022/12/04 05:30:29;;;;;;;61.05;37.63;;;;;;;-0.55;100.00;101557.91;5103137;28;20040;-78
2022/12/04 05:32:54;;;;;;;60.30;36.72;;;;;;;-0.54;100.00;101558.00;5104928;28;20065;-66
2022/12/04 05:35:19;;;;;;;60.13;36.72;;;;;;;-0.55;100.00;101551.00;5101887;28;20047;-66
2022/12/04 05:37:45;;;;;;;60.35;36.65;;;;;;;-0.53;100.00;101553.69;5096966;28;20032;-66
2022/12/04 05:40:10;;;;;;;60.50;36.63;;;;;;;-0.54;100.00;101562.28;5102553;28;20024;-66
2022/12/04 05:42:36;;;;;;;60.95;36.85;;;;;;;-0.54;100.00;101557.06;5103974;28;20028;-66
2022/12/04 05:45:01;;;;;;;59.78;37.38;;;;;;;-0.55;100.00;101556.19;5102252;28;20059;-66
2022/12/04 05:47:27;;;;;;;58.72;36.17;;;;;;;-0.54;100.00;101550.19;5102809;28;20534;-67
2022/12/04 05:49:52;;;;;;;60.17;37.95;;;;;;;-0.55;100.00;101552.72;5103491;28;20115;-66
2022/12/04 05:52:17;;;;;;;59.30;37.13;;;;;;;-0.58;100.00;101548.22;5101455;28;20528;-66
2022/12/04 05:54:43;;;;;;;59.03;37.05;;;;;;;-0.57;100.00;101539.63;5104923;28;20031;-66
2022/12/04 05:57:08;;;;;;;59.90;36.42;;;;;;;-0.54;100.00;101550.19;5102236;28;20058;-65
2022/12/04 05:59:34;;;;;;;60.58;36.72;;;;;;;-0.53;100.00;101538.09;5103742;28;20036;-66
2022/12/04 06:01:59;;;;;;;60.90;37.63;;;;;;;-0.55;100.00;101543.19;5103758;28;20462;-67
2022/12/04 06:04:25;;;;;;;59.40;37.72;;;;;;;-0.49;100.00;101534.88;5101963;28;20036;-66
2022/12/04 06:06:52;;;;;;;59.33;36.25;;;;;;;-0.54;100.00;101538.88;5105031;28;20031;-66
2022/12/04 06:09:18;;;;;;;58.97;36.78;;;;;;;-0.54;100.00;101533.69;5097424;28;20039;-66
2022/12/04 06:11:43;;;;;;;59.88;37.20;;;;;;;-0.54;100.00;101536.28;5104403;28;20466;-66
2022/12/04 06:14:12;;;;;;;61.72;38.25;;;;;;;-0.54;100.00;101531.09;5102681;28;20078;-66
2022/12/04 06:16:41;;;;;;;60.60;37.30;;;;;;;-0.52;100.00;101537.31;5103588;28;20028;-66
2022/12/04 06:19:09;;;;;;;61.33;37.80;;;;;;;-0.55;100.00;101531.94;5102718;28;20098;-66
2022/12/04 06:21:36;;;;;;;61.28;37.63;;;;;;;-0.54;100.00;101538.88;5103036;28;20093;-78
2022/12/04 06:24:03;;;;;;;60.38;37.15;;;;;;;-0.56;100.00;101541.41;5103147;28;20045;-66
2022/12/04 06:26:28;;;;;;;60.75;37.83;;;;;;;-0.56;100.00;101544.00;5102218;28;20031;-68
2022/12/04 06:28:55;;;;;;;60.65;37.72;;;;;;;-0.52;100.00;101539.91;5102929;28;20051;-74
2022/12/04 06:31:22;;;;;;;59.80;37.30;;;;;;;-0.56;100.00;101540.50;5099691;28;20039;-67
2022/12/04 06:33:49;;;;;;;58.83;37.17;;;;;;;-0.55;100.00;101540.59;5103855;28;20051;-66
2022/12/04 06:36:17;;;;;;;63.28;39.13;;;;;;;-0.54;100.00;101538.88;5099136;28;20532;-74
2022/12/04 06:38:43;;;;;;;60.80;38.33;;;;;;;-0.53;100.00;101549.38;5103317;28;20084;-70
2022/12/04 06:41:14;;;;;;;59.85;36.15;;;;;;;-0.53;100.00;101540.69;5100948;28;20386;-68
2022/12/04 06:43:39;;;;;;;61.17;37.47;;;;;;;-0.49;100.00;101547.88;5102652;28;20028;-66
2022/12/04 06:46:08;;;;;;;60.80;37.30;;;;;;;-0.50;100.00;101546.06;5101658;28;20351;-66
2022/12/04 06:48:34;;;;;;;59.45;36.67;;;;;;;-0.52;100.00;101542.50;5102034;28;20141;-67
2022/12/04 06:51:05;;;;;;;59.97;37.03;;;;;;;-0.51;100.00;101544.31;5100978;28;20477;-67
2022/12/04 06:53:31;;;;;;;59.53;37.45;;;;;;;-0.53;100.00;101545.88;5101454;28;20059;-68
2022/12/04 06:55:58;;;;;;;60.55;37.25;;;;;;;-0.53;100.00;101545.88;5102586;28;20027;-68
2022/12/04 06:58:24;;;;;;;60.03;37.60;;;;;;;-0.55;100.00;101548.41;5100159;28;20090;-66
2022/12/04 07:00:49;;;;;;;61.08;37.88;;;;;;;-0.51;100.00;101549.50;5103804;28;20164;-67
2022/12/04 07:03:15;;;;;;;59.70;38.00;;;;;;;-0.51;100.00;101561.56;5099882;28;20107;-66
2022/12/04 07:05:40;;;;;;;60.83;37.72;;;;;;;-0.51;100.00;101554.69;5102507;28;20490;-66
2022/12/04 07:08:05;;;;;;;58.40;35.75;;;;;;;-0.46;100.00;101566.25;5100439;28;20488;-70
2022/12/04 07:10:31;;;;;;;58.88;36.78;;;;;;;-0.49;100.00;101553.06;5101147;28;20036;-78
2022/12/04 07:12:56;;;;;;;58.58;36.35;;;;;;;-0.49;100.00;101560.88;5102459;28;20027;-78
2022/12/04 07:15:21;;;;;;;59.55;36.88;;;;;;;-0.51;100.00;101559.88;5100054;28;20109;-78
2022/12/04 07:17:47;;;;;;;59.80;37.67;;;;;;;-0.50;100.00;101569.44;5103088;28;20028;-79
2022/12/04 07:20:12;;;;;;;58.42;36.95;;;;;;;-0.50;100.00;101566.84;5100210;28;20115;-73
2022/12/04 07:22:38;;;;;;;58.88;37.28;;;;;;;-0.49;100.00;101573.84;5102115;28;20032;-78
2022/12/04 07:25:06;;;;;;;56.83;35.53;;;;;;;-0.52;100.00;101581.47;5101292;28;20027;-79
2022/12/04 07:27:32;;;;;;;55.90;35.40;;;;;;;-0.51;100.00;101578.06;5048843;28;1094933;-71
2022/12/04 07:29:57;;;;;;;57.83;36.45;;;;;;;-0.50;100.00;101576.34;5103094;28;20305;-79
2022/12/04 07:32:22;;;;;;;58.65;36.78;;;;;;;-0.45;100.00;101583.63;5100875;28;20032;-77
2022/12/04 07:34:48;;;;;;;59.28;36.58;;;;;;;-0.49;100.00;101576.44;5104063;28;20097;-73
2022/12/04 07:37:13;;;;;;;56.28;35.55;;;;;;;-0.49;100.00;101578.16;5100802;28;20074;-74
2022/12/04 07:39:38;;;;;;;55.95;34.88;;;;;;;-0.48;100.00;101580.84;5102813;28;20028;-70
2022/12/04 07:42:04;;;;;;;55.47;34.72;;;;;;;-0.49;100.00;101571.25;5104335;28;20031;-78
2022/12/04 07:44:30;;;;;;;57.42;35.38;;;;;;;-0.47;100.00;101579.13;5105031;28;20028;-74
2022/12/04 07:46:56;;;;;;;56.25;35.60;;;;;;;-0.46;100.00;101583.53;5106725;28;20023;-79
2022/12/04 07:49:21;;;;;;;56.08;35.42;;;;;;;-0.45;100.00;101586.22;5104146;28;20081;-72
2022/12/04 07:51:46;;;;;;;56.70;35.17;;;;;;;-0.45;100.00;101581.03;5099721;28;20035;-79
2022/12/04 07:54:12;;;;;;;54.85;34.67;;;;;;;-0.45;100.00;101586.22;5106601;28;20462;-79
2022/12/04 07:56:37;;;;;;;54.42;34.75;;;;;;;-0.43;100.00;101582.00;5105080;28;20482;-79
2022/12/04 07:59:03;;;;;;;55.42;34.53;;;;;;;-0.42;100.00;101586.41;5105068;28;20114;-79
2022/12/04 08:01:29;;;;;;;52.67;33.95;;;;;;;-0.40;100.00;101584.78;5101642;28;20028;-67
2022/12/04 08:03:56;;;;;;;51.78;33.08;;;;;;;-0.36;100.00;101591.97;5095477;28;20040;-79
2022/12/04 08:06:22;;;;;;;54.70;35.15;;;;;;;-0.37;100.00;101590.16;5089555;28;20585;-76
2022/12/04 08:08:48;;;;;;;53.85;33.42;;;;;;;-0.34;100.00;101593.78;5099543;28;20036;-80
2022/12/04 08:11:17;;;;;;;53.20;33.42;;;;;;;-0.37;100.00;101599.69;5099981;28;20118;-77
2022/12/04 08:13:43;;;;;;;52.63;32.45;;;;;;;-0.33;100.00;101590.38;5099405;28;20032;-77
2022/12/04 08:16:10;;;;;;;53.63;32.90;;;;;;;-0.34;100.00;101593.78;5097904;28;20063;-75
2022/12/04 08:18:36;;;;;;;52.00;33.03;;;;;;;-0.32;100.00;101599.94;5099010;28;20028;-80
2022/12/04 08:21:07;;;;;;;52.03;32.67;;;;;;;-0.28;100.00;101601.94;5100830;28;20490;-77
2022/12/04 08:23:33;;;;;;;50.60;32.13;;;;;;;-0.26;100.00;101596.03;5087447;28;20033;-73
2022/12/04 08:25:59;;;;;;;51.75;33.00;;;;;;;-0.27;100.00;101604.63;5098951;28;20093;-69
2022/12/04 08:28:25;;;;;;;50.20;31.48;;;;;;;-0.25;100.00;101599.50;5104708;28;20133;-69
2022/12/04 08:30:53;;;;;;;48.70;31.20;;;;;;;-0.21;100.00;101599.78;5100743;28;20566;-71
2022/12/04 08:33:18;;;;;;;49.17;31.13;;;;;;;-0.19;100.00;101599.88;5097523;28;20085;-68
2022/12/04 08:35:44;;;;;;;49.22;31.25;;;;;;;-0.18;100.00;101599.09;5100360;28;20495;-68
2022/12/04 08:38:09;;;;;;;46.67;29.17;;;;;;;-0.17;100.00;101590.50;5097606;28;20043;-68
2022/12/04 08:40:34;;;;;;;48.65;31.42;;;;;;;-0.12;100.00;101596.84;5101596;28;20039;-65
2022/12/04 08:43:00;;;;;;;49.35;33.00;;;;;;;-0.11;100.00;101597.75;5079950;28;20119;-65
2022/12/04 08:45:25;;;;;;;49.20;30.92;;;;;;;-0.09;100.00;101596.13;5098091;28;20028;-67
2022/12/04 08:47:50;;;;;;;47.30;30.52;;;;;;;-0.05;100.00;101592.91;5098723;28;20114;-69
2022/12/04 08:50:16;;;;;;;48.35;30.63;;;;;;;-0.02;100.00;101598.28;5099158;28;20065;-68
2022/12/04 08:52:41;;;;;;;45.20;29.23;;;;;;;-0.02;100.00;101585.28;5097884;28;20081;-67
2022/12/04 08:55:07;;;;;;;45.42;29.67;;;;;;;0.01;100.00;101597.59;5101119;28;20096;-67
2022/12/04 08:57:32;;;;;;;48.17;29.95;;;;;;;0.08;100.00;101589.34;5097113;28;20035;-70
2022/12/04 08:59:58;;;;;;;46.00;29.25;;;;;;;0.14;100.00;101584.50;5096874;28;20048;-64
2022/12/04 09:02:23;;;;;;;44.78;28.70;;;;;;;0.14;100.00;101580.19;5101370;28;20042;-66
2022/12/04 09:04:49;;;;;;;43.65;27.58;;;;;;;0.22;100.00;101578.03;5095621;28;20044;-67
2022/12/04 09:07:14;;;;;;;45.75;28.88;;;;;;;0.21;100.00;101585.75;5098523;28;20359;-68
2022/12/04 09:09:39;;;;;;;43.03;27.20;;;;;;;0.28;100.00;101586.19;5099776;28;20553;-66
2022/12/04 09:12:05;;;;;;;42.88;27.17;;;;;;;0.31;100.00;101588.09;5098567;28;20020;-68
2022/12/04 09:14:30;;;;;;;45.63;27.95;;;;;;;0.36;100.00;101590.94;5095279;28;20382;-68
2022/12/04 09:16:55;;;;;;;44.85;27.42;;;;;;;0.40;100.00;101593.81;5098789;28;20101;-68
2022/12/04 09:19:21;;;;;;;43.10;26.88;;;;;;;0.44;100.00;101593.19;5101502;28;20032;-68
2022/12/04 09:21:46;;;;;;;42.17;26.48;;;;;;;0.42;100.00;101588.69;5097943;28;20024;-69
2022/12/04 09:24:12;;;;;;;43.30;26.42;;;;;;;0.42;100.00;101591.28;5098087;28;20111;-68
2022/12/04 09:26:37;;;;;;;42.40;25.70;;;;;;;0.46;100.00;101598.47;5098378;28;20071;-67
2022/12/04 09:29:05;;;;;;;44.28;27.38;;;;;;;0.42;100.00;101612.09;5096403;28;20471;-67
2022/12/04 09:31:30;;;;;;;42.42;26.75;;;;;;;0.41;100.00;101608.63;5097615;28;20054;-67
2022/12/04 09:34:00;;;;;;;42.72;27.05;;;;;;;0.47;100.00;101608.06;5094541;28;20413;-68
2022/12/04 09:36:26;;;;;;;42.25;25.95;;;;;;;0.48;100.00;101600.34;5098793;28;20032;-68
2022/12/04 09:38:53;;;;;;;41.75;26.33;;;;;;;0.48;100.00;101599.44;5101726;28;20028;-69
2022/12/04 09:41:27;;;;;;;41.17;25.58;;;;;;;0.52;100.00;101604.00;5105444;28;20043;-67
2022/12/04 09:44:02;;;;;;;40.55;24.65;;;;;;;0.45;100.00;101600.19;5098757;28;20060;-67
2022/12/04 09:46:35;;;;;;;42.55;25.55;;;;;;;0.48;100.00;101600.34;5104303;28;20478;-67
2022/12/04 09:49:15;;;;;;;39.63;25.25;;;;;;;0.44;100.00;101593.19;5102882;28;20020;-67
2022/12/04 09:51:41;;;;;;;40.80;25.48;;;;;;;0.37;100.00;101597.94;5102236;27;20114;-67
2022/12/04 09:54:16;;;;;;;39.35;24.20;;;;;;;0.32;100.00;101600.25;5103891;28;20024;-67
2022/12/04 09:56:48;;;;;;;39.33;24.40;;;;;;;0.28;100.00;101604.41;5102269;28;20032;-67
2022/12/04 09:59:18;;;;;;;39.33;23.88;;;;;;;0.23;100.00;101603.22;5104456;28;20026;-67
2022/12/04 10:01:47;;;;;;;39.58;24.13;;;;;;;0.25;100.00;101605.91;5101690;28;20028;-68
2022/12/04 10:04:13;;;;;;;39.97;24.98;;;;;;;0.22;100.00;101613.53;5104364;28;20031;-68
2022/12/04 10:07:00;;;;;;;38.50;23.48;;;;;;;0.23;100.00;101617.94;5101214;28;20055;-67
2022/12/04 10:10:07;;;;;;;39.53;24.35;;;;;;;0.19;100.00;101608.16;5098854;28;20139;-67
2022/12/04 10:13:06;;;;;;;38.72;23.88;;;;;;;0.19;100.00;101603.88;5040380;28;20429;-68
2022/12/04 10:15:42;;;;;;;37.53;22.92;;;;;;;0.23;100.00;101599.75;5100478;28;20034;-68
2022/12/04 10:18:22;;;;;;;40.83;24.73;;;;;;;0.19;100.00;101597.75;5102644;28;20034;-68
2022/12/04 10:20:58;;;;;;;38.70;23.42;;;;;;;0.24;100.00;101592.03;5097299;28;20024;-67
2022/12/04 10:23:35;;;;;;;37.72;22.23;;;;;;;0.20;100.00;101590.03;5098317;28;20024;-67
2022/12/04 10:26:04;;;;;;;37.72;22.40;;;;;;;0.16;100.00;101595.88;5103802;28;20424;-68
2022/12/04 10:28:42;;;;;;;37.35;22.27;;;;;;;0.15;100.00;101589.78;5101790;28;20043;-68
2022/12/04 10:31:13;;;;;;;38.78;23.23;;;;;;;0.10;100.00;101591.22;5101060;28;20035;-67
2022/12/04 10:33:49;;;;;;;39.73;23.43;;;;;;;0.09;100.00;101586.84;5103547;28;20403;-68
2022/12/04 10:36:22;;;;;;;38.10;23.58;;;;;;;0.08;100.00;101594.53;5101525;28;20057;-67
2022/12/04 10:39:09;;;;;;;38.10;23.10;;;;;;;0.24;100.00;101593.75;5096815;28;20028;-68
2022/12/04 10:41:54;;;;;;;38.15;23.65;;;;;;;0.15;100.00;101604.50;5101783;28;20031;-68
2022/12/04 10:44:19;;;;;;;38.50;23.23;;;;;;;0.10;100.00;101603.31;5097177;28;20111;-68
2022/12/04 10:46:45;;;;;;;38.63;23.45;;;;;;;0.15;100.00;101609.69;5104063;28;20500;-68
2022/12/04 10:49:13;;;;;;;38.70;23.90;;;;;;;0.15;100.00;101601.91;5101792;28;20030;-67
2022/12/04 10:51:41;;;;;;;37.03;23.33;;;;;;;0.16;100.00;101593.25;5102096;28;20024;-67
2022/12/04 10:54:48;;;;;;;38.47;23.45;;;;;;;0.12;100.00;101602.59;5100866;28;20027;-67
2022/12/04 10:57:14;;;;;;;38.70;25.60;;;;;;;0.10;100.00;101595.50;5086371;28;20486;-67
2022/12/04 10:59:48;;;;;;;38.88;25.15;;;;;;;0.12;100.00;101593.94;5101682;28;20051;-68
2022/12/04 11:02:22;;;;;;;37.85;23.15;;;;;;;0.11;100.00;101589.53;5102340;28;20184;-67
2022/12/04 11:05:00;;;;;;;38.47;24.58;;;;;;;0.12;100.00;101580.91;5096839;28;20031;-67
2022/12/04 11:07:28;;;;;;;37.55;23.90;;;;;;;0.11;100.00;101573.91;5096965;28;20016;-67
2022/12/04 11:09:57;;;;;;;37.13;23.55;;;;;;;0.13;100.00;101577.50;5095610;28;20035;-77
2022/12/04 11:12:23;;;;;;;38.92;23.77;;;;;;;0.07;100.00;101572.81;5103509;28;20027;-72
2022/12/04 11:15:01;;;;;;;39.42;24.92;;;;;;;0.06;100.00;101576.25;5101135;28;20028;-69
2022/12/04 11:17:26;;;;;;;38.65;25.05;;;;;;;0.07;100.00;101569.34;5098501;28;20046;-73
2022/12/04 11:20:04;;;;;;;38.60;24.92;;;;;;;0.15;100.00;101565.50;5107680;28;20032;-70
2022/12/04 11:22:30;;;;;;;38.50;25.92;;;;;;;0.12;100.00;101568.81;5101130;28;20030;-70
2022/12/04 11:24:58;;;;;;;42.17;29.55;;;;;;;0.13;100.00;101556.69;5108045;28;20059;-69
2022/12/04 11:27:33;;;;;;;39.00;24.30;;;;;;;0.19;100.00;101554.47;5100478;28;20107;-78